Time;durP1;ratioP1;P1;durP2;ratioP2;P2;SDS_P1;SDS_P2;PMS_P1;PMS_P2;Temp;Humidity;BMP_temperature;BMP_pressure;BME280_temperature;BME280_humidity;BME280_pressure;Samples;Min_cycle;Max_cycle;Signal;HPM_P1;HPM_P2
2022/03/05 00:00:55;;;;;;;16.60;11.73;;;18.40;53.50;;;;;;5012984;28;20052;-74
2022/03/05 00:03:21;;;;;;;14.50;11.40;;;18.40;53.50;;;;;;5007418;28;20030;-72
2022/03/05 00:05:47;;;;;;;14.52;11.68;;;18.40;53.60;;;;;;5009360;28;20025;-74
2022/03/05 00:08:13;;;;;;;17.48;11.27;;;18.40;53.50;;;;;;5013481;28;20474;-72
2022/03/05 00:10:39;;;;;;;17.15;11.82;;;18.30;53.50;;;;;;5013253;28;20029;-79
2022/03/05 00:13:05;;;;;;;14.68;11.48;;;18.30;53.50;;;;;;5013671;28;20584;-78
2022/03/05 00:15:30;;;;;;;14.88;11.95;;;18.30;53.50;;;;;;5013041;28;20038;-74
2022/03/05 00:17:56;;;;;;;15.95;12.10;;;18.30;53.50;;;;;;5012338;28;20109;-75
2022/03/05 00:20:23;;;;;;;16.95;12.30;;;18.20;53.40;;;;;;5012066;28;20026;-74
2022/03/05 00:22:52;;;;;;;16.35;12.75;;;18.30;53.50;;;;;;5013517;28;20057;-73
2022/03/05 00:25:20;;;;;;;15.13;11.65;;;18.20;53.50;;;;;;5012966;28;20030;-74
2022/03/05 00:27:46;;;;;;;16.80;12.45;;;18.20;53.50;;;;;;5012785;28;20096;-73
2022/03/05 00:30:13;;;;;;;15.80;11.80;;;18.20;53.60;;;;;;5012639;28;20025;-76
2022/03/05 00:32:38;;;;;;;16.17;12.02;;;18.10;53.50;;;;;;5012363;28;20026;-73
2022/03/05 00:35:05;;;;;;;18.70;12.65;;;18.10;53.60;;;;;;5012267;28;20068;-72
2022/03/05 00:37:32;;;;;;;17.35;12.80;;;18.00;53.50;;;;;;5012160;28;20040;-72
2022/03/05 00:39:57;;;;;;;14.38;11.98;;;18.00;53.50;;;;;;5012360;28;20053;-73
2022/03/05 00:42:24;;;;;;;15.43;11.48;;;18.00;53.50;;;;;;5011892;28;20494;-73
2022/03/05 00:44:49;;;;;;;15.75;11.40;;;17.90;53.50;;;;;;5012448;28;20030;-72
2022/03/05 00:47:15;;;;;;;14.13;11.50;;;18.00;53.50;;;;;;5011956;28;20034;-72
2022/03/05 00:49:41;;;;;;;16.10;12.00;;;18.00;53.40;;;;;;5012040;28;20030;-74
2022/03/05 00:52:07;;;;;;;16.15;12.50;;;17.90;53.30;;;;;;5012165;28;20033;-72
2022/03/05 00:54:33;;;;;;;17.70;11.70;;;17.90;53.30;;;;;;5011572;28;20466;-73
2022/03/05 00:56:59;;;;;;;14.48;11.75;;;17.90;53.40;;;;;;5012424;28;20096;-72
2022/03/05 00:59:25;;;;;;;16.25;12.45;;;17.90;53.30;;;;;;5011759;28;20452;-73
2022/03/05 01:01:50;;;;;;;15.10;11.85;;;17.80;54.50;;;;;;5012101;28;20485;-74
2022/03/05 01:04:16;;;;;;;18.45;11.60;;;17.90;55.40;;;;;;5011668;28;20029;-72
2022/03/05 01:06:42;;;;;;;14.65;11.35;;;17.90;55.20;;;;;;5011186;28;20080;-74
2022/03/05 01:09:08;;;;;;;15.50;11.80;;;17.90;55.20;;;;;;5007020;28;20031;-73
2022/03/05 01:11:33;;;;;;;16.45;12.32;;;17.80;55.50;;;;;;5010456;28;20080;-73
2022/03/05 01:13:59;;;;;;;14.60;11.10;;;17.80;55.80;;;;;;5011658;28;20042;-72
2022/03/05 01:16:24;;;;;;;15.88;12.60;;;17.80;55.80;;;;;;5011533;28;20463;-73
2022/03/05 01:18:50;;;;;;;15.05;11.73;;;17.80;55.90;;;;;;5011738;28;20486;-72
2022/03/05 01:21:16;;;;;;;19.75;13.25;;;17.80;55.90;;;;;;5012537;28;20025;-72
2022/03/05 01:23:41;;;;;;;14.82;11.95;;;17.80;55.90;;;;;;5011309;28;20022;-73
2022/03/05 01:26:07;;;;;;;14.45;11.50;;;17.80;56.00;;;;;;5011841;28;20500;-72
2022/03/05 01:28:33;;;;;;;16.27;12.43;;;17.70;55.80;;;;;;5011368;28;20029;-72
2022/03/05 01:30:59;;;;;;;16.13;12.52;;;17.70;56.40;;;;;;5011391;28;20508;-72
2022/03/05 01:33:25;;;;;;;16.60;12.45;;;17.70;55.90;;;;;;5011311;28;20031;-73
2022/03/05 01:35:51;;;;;;;15.73;12.07;;;17.70;55.80;;;;;;5011669;28;20427;-74
2022/03/05 01:38:17;;;;;;;16.05;12.43;;;17.70;55.90;;;;;;5011754;28;20104;-73
2022/03/05 01:40:43;;;;;;;17.20;12.95;;;17.70;55.70;;;;;;5011104;28;20116;-73
2022/03/05 01:43:10;;;;;;;15.45;12.27;;;17.70;55.80;;;;;;4993727;28;20034;-72
2022/03/05 01:45:36;;;;;;;15.82;12.60;;;17.60;55.70;;;;;;5011033;28;20488;-72
2022/03/05 01:48:02;;;;;;;16.35;12.77;;;17.60;55.80;;;;;;5011428;28;20385;-73
2022/03/05 01:50:28;;;;;;;16.40;12.18;;;17.60;55.70;;;;;;5011151;28;20026;-73
2022/03/05 01:52:54;;;;;;;15.85;12.82;;;17.50;55.60;;;;;;5011398;28;20101;-84
2022/03/05 01:55:20;;;;;;;17.45;13.10;;;17.50;55.60;;;;;;5010858;28;20041;-72
2022/03/05 01:57:46;;;;;;;18.00;13.00;;;17.50;55.50;;;;;;5011433;28;20034;-77
2022/03/05 02:00:14;;;;;;;16.98;12.45;;;17.50;55.40;;;;;;5011113;28;20028;-76
2022/03/05 02:02:40;;;;;;;19.50;13.80;;;17.40;55.30;;;;;;5011063;28;20022;-72
2022/03/05 02:05:07;;;;;;;15.82;12.35;;;17.40;55.30;;;;;;5011029;28;20026;-74
2022/03/05 02:07:33;;;;;;;19.48;13.13;;;17.50;55.20;;;;;;5009424;28;20080;-73
2022/03/05 02:09:59;;;;;;;16.67;12.02;;;17.40;55.10;;;;;;5009508;28;20030;-74
2022/03/05 02:12:29;;;;;;;15.45;11.35;;;17.40;55.10;;;;;;5010639;28;20022;-72
2022/03/05 02:14:55;;;;;;;17.83;12.88;;;17.40;55.00;;;;;;5010819;28;20049;-72
2022/03/05 02:17:21;;;;;;;17.83;12.80;;;17.40;54.90;;;;;;5010390;28;20037;-73
2022/03/05 02:19:47;;;;;;;16.58;12.60;;;17.40;54.90;;;;;;5011289;28;20052;-75
2022/03/05 02:22:13;;;;;;;15.65;12.38;;;17.30;54.80;;;;;;5010796;28;20418;-73
2022/03/05 02:24:39;;;;;;;15.88;12.43;;;17.30;54.70;;;;;;5010311;28;20038;-73
2022/03/05 02:27:06;;;;;;;17.25;12.20;;;17.30;54.70;;;;;;5010482;28;20030;-73
2022/03/05 02:29:35;;;;;;;17.05;12.93;;;17.30;54.70;;;;;;5010437;28;20037;-72
2022/03/05 02:32:02;;;;;;;18.02;12.75;;;17.20;54.60;;;;;;5010830;28;20030;-72
2022/03/05 02:34:29;;;;;;;16.67;13.25;;;17.20;54.60;;;;;;5011016;28;20104;-72
2022/03/05 02:36:55;;;;;;;16.08;12.93;;;17.20;54.50;;;;;;5011127;28;20038;-72
2022/03/05 02:39:24;;;;;;;16.70;13.05;;;17.20;54.50;;;;;;4992851;28;20021;-72
2022/03/05 02:41:50;;;;;;;17.83;13.27;;;17.20;54.40;;;;;;5011269;28;20062;-72
2022/03/05 02:44:16;;;;;;;16.50;12.57;;;17.10;54.30;;;;;;5013580;28;20026;-76
2022/03/05 02:46:41;;;;;;;17.15;13.55;;;17.10;54.20;;;;;;5014563;28;20088;-73
2022/03/05 02:49:07;;;;;;;15.52;12.15;;;17.10;54.10;;;;;;5015134;28;20018;-73
2022/03/05 02:51:33;;;;;;;16.45;12.73;;;17.10;54.10;;;;;;5014618;28;20470;-75
2022/03/05 02:53:59;;;;;;;16.52;13.13;;;17.10;54.10;;;;;;5014359;28;20453;-72
2022/03/05 02:56:25;;;;;;;15.23;12.27;;;17.10;54.00;;;;;;5014044;28;20042;-73
2022/03/05 02:58:51;;;;;;;18.48;12.85;;;17.10;54.00;;;;;;5014708;28;20496;-72
2022/03/05 03:01:16;;;;;;;18.83;13.18;;;17.10;53.90;;;;;;5015111;28;20030;-75
2022/03/05 03:03:42;;;;;;;17.00;12.55;;;17.10;53.80;;;;;;5014353;28;20113;-74
2022/03/05 03:06:07;;;;;;;17.17;13.43;;;17.00;53.70;;;;;;5014610;28;20028;-73
2022/03/05 03:08:33;;;;;;;16.50;12.88;;;17.10;53.60;;;;;;5014409;28;20053;-73
2022/03/05 03:11:00;;;;;;;16.83;12.60;;;17.00;53.40;;;;;;5014206;28;20026;-75
2022/03/05 03:13:25;;;;;;;16.65;12.52;;;17.00;53.30;;;;;;5014336;28;20044;-72
2022/03/05 03:15:51;;;;;;;15.85;12.40;;;17.10;53.40;;;;;;5013977;28;20037;-75
2022/03/05 03:18:17;;;;;;;17.30;13.35;;;17.00;53.20;;;;;;5014739;28;20029;-75
2022/03/05 03:20:43;;;;;;;18.17;12.75;;;17.10;53.20;;;;;;5014051;28;20026;-76
2022/03/05 03:23:10;;;;;;;17.73;13.13;;;17.10;53.20;;;;;;5014044;28;20030;-74
2022/03/05 03:25:38;;;;;;;17.50;12.55;;;17.00;53.10;;;;;;5013926;28;20401;-76
2022/03/05 03:28:04;;;;;;;15.80;12.57;;;17.10;53.10;;;;;;5014240;28;20128;-74
2022/03/05 03:30:30;;;;;;;18.23;13.05;;;17.10;53.00;;;;;;5013788;28;20389;-74
2022/03/05 03:32:56;;;;;;;17.63;12.82;;;17.10;53.50;;;;;;5014164;28;20033;-75
2022/03/05 03:35:22;;;;;;;16.23;12.00;;;17.10;52.90;;;;;;5013266;28;20045;-75
2022/03/05 03:37:47;;;;;;;15.13;11.93;;;17.10;52.90;;;;;;5014290;28;20017;-78
2022/03/05 03:40:16;;;;;;;16.30;13.15;;;17.10;52.80;;;;;;5014096;28;20488;-74
2022/03/05 03:42:43;;;;;;;15.75;12.55;;;17.10;52.80;;;;;;5013624;28;20032;-75
2022/03/05 03:45:10;;;;;;;16.73;12.65;;;17.10;52.70;;;;;;5012557;28;20531;-76
2022/03/05 03:47:37;;;;;;;16.67;11.55;;;17.10;52.70;;;;;;5013674;28;20112;-72
2022/03/05 03:50:05;;;;;;;17.92;13.13;;;17.10;52.60;;;;;;5013319;28;20026;-72
2022/03/05 03:52:31;;;;;;;16.85;11.95;;;17.10;52.50;;;;;;5013533;28;20025;-71
2022/03/05 03:54:57;;;;;;;17.15;12.57;;;17.10;52.40;;;;;;5011030;28;20404;-71
2022/03/05 03:57:22;;;;;;;15.75;12.15;;;17.10;52.30;;;;;;5012140;28;20117;-72
2022/03/05 03:59:51;;;;;;;15.38;12.18;;;17.20;52.20;;;;;;5013787;28;20105;-71
2022/03/05 04:02:21;;;;;;;18.85;12.63;;;17.20;52.20;;;;;;4996040;28;20393;-72
2022/03/05 04:04:48;;;;;;;16.05;11.52;;;17.20;52.10;;;;;;5013257;28;20116;-72
2022/03/05 04:09:58;;;;;;;15.20;12.07;;;17.20;52.00;;;;;;5013129;28;20029;-72
2022/03/05 04:12:24;;;;;;;15.13;12.57;;;17.20;52.00;;;;;;5013123;28;20018;-72
2022/03/05 04:14:50;;;;;;;16.52;12.43;;;17.20;52.00;;;;;;5013527;28;20121;-72
2022/03/05 04:17:15;;;;;;;15.30;12.10;;;17.20;52.00;;;;;;5013683;28;20025;-74
2022/03/05 04:19:42;;;;;;;16.48;11.95;;;17.20;51.90;;;;;;5012532;28;20041;-72
2022/03/05 04:22:08;;;;;;;14.15;11.80;;;17.20;51.90;;;;;;5013324;28;20398;-73
2022/03/05 04:24:33;;;;;;;14.68;11.80;;;17.20;51.90;;;;;;5012240;28;20030;-72
2022/03/05 04:26:59;;;;;;;15.85;12.25;;;17.20;51.90;;;;;;5012052;28;20026;-74
2022/03/05 04:29:25;;;;;;;17.60;12.73;;;17.30;52.00;;;;;;5012920;28;20030;-72
2022/03/05 04:31:51;;;;;;;15.88;11.57;;;17.20;51.90;;;;;;5011960;28;20033;-73
2022/03/05 04:34:17;;;;;;;14.25;10.85;;;17.30;52.00;;;;;;5012914;28;20025;-73
2022/03/05 04:36:42;;;;;;;14.02;11.10;;;17.30;51.90;;;;;;5011158;28;20033;-73
2022/03/05 04:39:08;;;;;;;13.07;10.38;;;17.30;51.90;;;;;;5012760;28;20022;-72
2022/03/05 04:41:34;;;;;;;13.07;11.35;;;17.30;51.90;;;;;;5012487;28;20053;-72
2022/03/05 04:44:00;;;;;;;14.02;11.48;;;17.30;51.80;;;;;;4995005;28;20121;-73
2022/03/05 04:46:26;;;;;;;11.95;10.25;;;17.30;51.80;;;;;;5012268;28;20116;-73
2022/03/05 04:48:52;;;;;;;13.32;10.90;;;17.30;51.80;;;;;;5012459;28;20014;-73
2022/03/05 04:51:17;;;;;;;12.73;11.02;;;17.40;51.70;;;;;;5012820;28;20078;-73
2022/03/05 04:53:43;;;;;;;13.20;10.38;;;17.40;51.70;;;;;;5012381;28;20041;-72
2022/03/05 04:56:08;;;;;;;13.45;11.02;;;17.30;51.70;;;;;;5012268;28;20108;-75
2022/03/05 04:58:34;;;;;;;13.35;10.25;;;17.40;51.60;;;;;;5012191;28;20097;-73
2022/03/05 05:01:01;;;;;;;12.95;10.45;;;17.40;51.60;;;;;;5012342;28;20026;-73
2022/03/05 05:03:27;;;;;;;12.88;10.15;;;17.40;51.60;;;;;;5012096;28;20021;-72
2022/03/05 05:05:52;;;;;;;13.73;10.88;;;17.40;51.50;;;;;;5012082;28;20109;-72
2022/03/05 05:08:18;;;;;;;13.88;10.70;;;17.50;51.50;;;;;;5012436;28;20535;-73
2022/03/05 05:10:44;;;;;;;13.23;11.02;;;17.40;51.40;;;;;;5011875;28;20555;-72
2022/03/05 05:13:09;;;;;;;13.57;9.88;;;17.40;51.40;;;;;;5011638;28;20393;-72
2022/03/05 05:15:35;;;;;;;13.63;10.13;;;17.50;51.40;;;;;;5011432;28;20488;-72
2022/03/05 05:18:01;;;;;;;14.55;10.05;;;17.40;51.40;;;;;;5012130;28;20026;-74
2022/03/05 05:20:27;;;;;;;12.88;10.32;;;17.50;51.40;;;;;;5012145;28;20481;-72
2022/03/05 05:22:53;;;;;;;12.27;10.23;;;17.50;51.40;;;;;;5011785;28;20033;-74
2022/03/05 05:25:18;;;;;;;12.98;10.35;;;17.50;51.40;;;;;;5012245;28;20030;-75
2022/03/05 05:27:45;;;;;;;13.00;10.88;;;17.50;51.40;;;;;;5011690;28;20040;-79
2022/03/05 05:30:10;;;;;;;13.73;10.75;;;17.50;51.40;;;;;;5011354;28;20037;-75
2022/03/05 05:32:36;;;;;;;11.50;9.90;;;17.50;51.30;;;;;;5011546;28;20030;-72
2022/03/05 05:35:03;;;;;;;12.45;10.38;;;17.50;51.30;;;;;;5011849;28;20033;-75
2022/03/05 05:37:29;;;;;;;12.25;10.57;;;17.50;51.30;;;;;;5011560;28;20061;-72
2022/03/05 05:39:54;;;;;;;11.95;9.77;;;17.60;51.30;;;;;;5011820;28;20057;-72
2022/03/05 05:42:20;;;;;;;12.82;10.65;;;17.60;51.30;;;;;;5012074;28;20022;-71
2022/03/05 05:44:45;;;;;;;13.27;9.40;;;17.60;51.30;;;;;;5011036;28;20087;-72
2022/03/05 05:47:11;;;;;;;13.57;10.27;;;17.60;51.30;;;;;;5011669;28;20022;-72
2022/03/05 05:49:37;;;;;;;11.80;10.52;;;17.60;51.20;;;;;;5011373;28;20029;-73
2022/03/05 05:52:04;;;;;;;12.68;10.10;;;17.60;51.20;;;;;;5010279;28;20022;-73
2022/03/05 05:54:30;;;;;;;12.57;10.75;;;17.60;51.20;;;;;;5011201;28;20038;-72
2022/03/05 05:56:55;;;;;;;12.88;10.52;;;17.60;51.20;;;;;;5011490;28;20113;-72
2022/03/05 05:59:21;;;;;;;12.55;10.15;;;17.60;51.20;;;;;;5011450;28;20107;-72
2022/03/05 06:01:47;;;;;;;11.82;10.30;;;17.60;51.20;;;;;;5010973;28;20505;-72
2022/03/05 06:04:12;;;;;;;12.50;9.98;;;17.60;51.20;;;;;;5011439;28;20022;-73
2022/03/05 06:06:38;;;;;;;12.25;9.13;;;17.60;51.20;;;;;;4993602;28;20113;-72
2022/03/05 06:09:04;;;;;;;11.30;9.25;;;17.60;51.20;;;;;;4993803;28;20049;-72
2022/03/05 06:11:30;;;;;;;12.40;9.80;;;17.60;51.20;;;;;;5010893;28;20386;-72
2022/03/05 06:13:56;;;;;;;15.27;9.75;;;17.60;51.20;;;;;;5008429;28;20104;-71
2022/03/05 06:16:21;;;;;;;11.35;9.05;;;17.70;51.10;;;;;;5008167;28;20509;-72
2022/03/05 06:18:47;;;;;;;13.45;10.20;;;17.70;51.10;;;;;;5011724;28;20029;-72
2022/03/05 06:21:13;;;;;;;12.30;10.23;;;17.70;51.10;;;;;;5013966;28;20147;-72
2022/03/05 06:23:39;;;;;;;11.88;9.98;;;17.70;51.10;;;;;;5013334;28;20026;-73
2022/03/05 06:26:06;;;;;;;12.82;10.38;;;17.70;51.10;;;;;;5015027;28;20088;-73
2022/03/05 06:28:31;;;;;;;10.80;9.40;;;17.70;51.00;;;;;;5013276;28;20018;-72
2022/03/05 06:30:57;;;;;;;12.93;9.80;;;17.70;51.00;;;;;;5013845;28;20406;-72
2022/03/05 06:33:23;;;;;;;12.50;9.55;;;17.70;51.10;;;;;;5014609;28;20025;-72
2022/03/05 06:35:49;;;;;;;11.63;8.85;;;17.70;51.00;;;;;;5014837;28;20065;-72
2022/03/05 06:38:14;;;;;;;11.40;9.73;;;17.70;51.00;;;;;;5013759;28;20032;-73
2022/03/05 06:40:40;;;;;;;11.38;9.20;;;17.70;51.10;;;;;;5014481;28;20504;-72
2022/03/05 06:43:06;;;;;;;11.52;9.73;;;17.70;51.60;;;;;;5014520;28;20044;-72
2022/03/05 06:45:31;;;;;;;11.10;9.95;;;17.70;51.00;;;;;;5013677;28;20042;-73
2022/03/05 06:47:57;;;;;;;11.25;8.63;;;17.70;51.00;;;;;;5014103;28;20026;-72
2022/03/05 06:50:23;;;;;;;10.75;9.32;;;17.70;51.00;;;;;;5014735;28;20393;-72
2022/03/05 06:52:49;;;;;;;12.38;10.15;;;17.70;51.00;;;;;;5013463;28;20100;-72
2022/03/05 06:55:16;;;;;;;11.90;9.15;;;17.70;50.90;;;;;;5012795;28;20052;-75
2022/03/05 06:57:43;;;;;;;11.75;9.32;;;17.70;50.90;;;;;;5013019;28;20018;-76
2022/03/05 07:00:11;;;;;;;11.27;9.70;;;17.70;50.90;;;;;;5013207;28;20034;-74
2022/03/05 07:02:36;;;;;;;10.60;8.73;;;17.80;50.90;;;;;;4998594;28;20524;-76
2022/03/05 07:05:03;;;;;;;11.27;9.32;;;17.70;50.90;;;;;;5013567;28;20064;-74
2022/03/05 07:07:28;;;;;;;10.10;8.10;;;17.80;50.90;;;;;;5013453;28;20026;-77
2022/03/05 07:09:54;;;;;;;12.52;9.52;;;17.80;50.90;;;;;;5013877;28;20447;-75
2022/03/05 07:12:19;;;;;;;11.80;9.63;;;17.80;50.90;;;;;;5014137;28;20038;-74
2022/03/05 07:14:48;;;;;;;12.25;9.45;;;17.80;50.90;;;;;;5013155;28;20049;-73
2022/03/05 07:17:15;;;;;;;13.20;9.65;;;17.80;50.90;;;;;;5013273;28;20037;-79
2022/03/05 07:19:41;;;;;;;10.13;8.63;;;17.80;51.40;;;;;;5013008;28;20073;-74
2022/03/05 07:22:06;;;;;;;11.63;9.52;;;17.80;50.80;;;;;;5003329;28;20050;-74
2022/03/05 07:24:32;;;;;;;11.75;9.60;;;17.80;50.80;;;;;;4991773;28;20026;-73
2022/03/05 07:26:58;;;;;;;11.90;9.55;;;17.80;50.80;;;;;;5014029;28;20049;-72
2022/03/05 07:29:24;;;;;;;11.90;9.57;;;17.80;50.80;;;;;;5013537;28;20033;-73
2022/03/05 07:31:49;;;;;;;12.73;9.63;;;17.80;50.80;;;;;;5013841;28;20391;-73
2022/03/05 07:34:15;;;;;;;14.50;9.60;;;17.80;50.80;;;;;;5013979;28;20030;-72
2022/03/05 07:36:41;;;;;;;12.98;9.75;;;17.80;50.80;;;;;;5013789;28;20061;-73
2022/03/05 07:39:08;;;;;;;13.15;9.88;;;17.80;50.80;;;;;;5008500;28;20036;-74
2022/03/05 07:41:34;;;;;;;13.95;10.25;;;17.80;50.80;;;;;;5013978;28;20041;-72
2022/03/05 07:44:00;;;;;;;13.43;10.15;;;17.80;50.90;;;;;;5012000;28;20038;-73
2022/03/05 07:46:26;;;;;;;14.52;11.88;;;17.80;50.80;;;;;;5011278;28;20092;-73
2022/03/05 07:48:51;;;;;;;13.98;10.18;;;17.80;50.80;;;;;;5014056;28;20021;-72
2022/03/05 07:51:17;;;;;;;13.45;9.68;;;17.80;50.90;;;;;;5012809;28;20117;-75
2022/03/05 07:53:43;;;;;;;17.27;10.63;;;17.90;50.80;;;;;;5012081;28;20018;-73
2022/03/05 07:56:10;;;;;;;15.95;11.35;;;17.90;50.80;;;;;;5012539;28;20041;-79
2022/03/05 07:58:36;;;;;;;14.18;10.57;;;17.90;50.70;;;;;;5002921;28;20553;-74
2022/03/05 08:01:01;;;;;;;16.00;11.48;;;18.00;50.90;;;;;;5009333;28;20397;-73
2022/03/05 08:03:27;;;;;;;18.33;12.20;;;18.00;50.90;;;;;;5011972;28;20018;-73
2022/03/05 08:05:53;;;;;;;18.40;13.50;;;18.00;51.10;;;;;;5012582;28;20021;-77
2022/03/05 08:08:19;;;;;;;20.00;12.63;;;18.10;51.30;;;;;;4994699;28;20030;-74
2022/03/05 08:10:44;;;;;;;21.67;12.60;;;18.10;51.40;;;;;;5006520;28;20478;-75
2022/03/05 08:13:11;;;;;;;20.00;12.18;;;18.00;51.40;;;;;;5013056;28;20033;-80
2022/03/05 08:15:36;;;;;;;17.80;13.50;;;18.10;51.60;;;;;;5012185;28;20038;-74
2022/03/05 08:18:02;;;;;;;17.58;13.52;;;18.10;51.80;;;;;;5012906;28;20018;-73
2022/03/05 08:20:30;;;;;;;20.45;14.18;;;18.10;51.70;;;;;;5012430;28;20061;-78
2022/03/05 08:22:56;;;;;;;20.95;13.48;;;18.10;51.90;;;;;;5011859;28;20068;-75
2022/03/05 08:25:22;;;;;;;19.38;14.10;;;18.20;51.90;;;;;;5011462;28;20105;-75
2022/03/05 08:27:48;;;;;;;20.58;14.85;;;18.20;51.90;;;;;;5010813;28;20101;-77
2022/03/05 08:30:14;;;;;;;20.52;13.63;;;18.20;51.90;;;;;;5011528;28;20061;-74
2022/03/05 08:32:40;;;;;;;19.70;13.63;;;18.20;51.90;;;;;;5005637;28;20049;-79
2022/03/05 08:35:07;;;;;;;21.35;14.73;;;18.20;51.80;;;;;;5012035;28;20034;-76
2022/03/05 08:37:36;;;;;;;21.73;14.57;;;18.20;51.90;;;;;;5011355;28;20022;-79
2022/03/05 08:40:04;;;;;;;22.67;15.43;;;18.30;51.90;;;;;;5011185;28;20104;-76
2022/03/05 08:42:30;;;;;;;24.85;15.52;;;18.30;52.00;;;;;;5010787;28;20078;-73
2022/03/05 08:44:55;;;;;;;23.73;14.95;;;18.30;52.10;;;;;;5005147;28;20073;-75
2022/03/05 08:47:21;;;;;;;25.13;16.00;;;18.30;52.20;;;;;;5011611;28;20072;-77
2022/03/05 08:49:47;;;;;;;24.88;16.27;;;18.30;52.20;;;;;;5011638;28;20037;-75
2022/03/05 08:52:12;;;;;;;22.77;15.25;;;18.30;52.10;;;;;;5012272;28;20374;-75
2022/03/05 08:54:38;;;;;;;26.05;15.95;;;18.30;52.20;;;;;;5011770;28;20481;-74
2022/03/05 08:57:04;;;;;;;24.73;15.52;;;18.40;52.20;;;;;;5006616;28;20041;-74
2022/03/05 08:59:30;;;;;;;22.80;15.88;;;18.40;52.20;;;;;;5011432;28;20030;-74
2022/03/05 09:01:56;;;;;;;24.38;16.30;;;18.40;52.10;;;;;;5012109;28;20030;-73
2022/03/05 09:04:22;;;;;;;26.50;15.73;;;18.50;52.30;;;;;;5010230;28;20117;-72
2022/03/05 09:06:47;;;;;;;21.70;15.63;;;18.50;52.30;;;;;;5010952;28;20104;-73
2022/03/05 09:09:13;;;;;;;23.33;15.82;;;18.50;52.50;;;;;;5010008;28;20398;-74
2022/03/05 09:11:39;;;;;;;22.73;14.60;;;18.50;52.30;;;;;;5010230;28;20029;-73
2022/03/05 09:14:06;;;;;;;24.13;15.15;;;18.50;52.50;;;;;;5010962;28;20026;-73
2022/03/05 09:16:34;;;;;;;21.80;15.32;;;18.50;52.50;;;;;;5011902;28;20022;-73
2022/03/05 09:19:00;;;;;;;20.80;14.88;;;18.50;52.40;;;;;;5012031;28;20014;-73
2022/03/05 09:21:25;;;;;;;31.23;15.95;;;18.50;52.10;;;;;;5012419;28;20022;-74
2022/03/05 09:23:51;;;;;;;22.85;15.65;;;18.50;52.10;;;;;;5012039;28;20022;-73
2022/03/05 09:26:17;;;;;;;22.27;13.93;;;18.50;52.10;;;;;;5012077;28;20040;-73
2022/03/05 09:28:44;;;;;;;22.35;14.80;;;18.50;52.10;;;;;;5011752;28;20057;-74
2022/03/05 09:31:10;;;;;;;19.92;15.25;;;18.50;52.10;;;;;;4994179;28;20123;-74
2022/03/05 09:33:37;;;;;;;22.35;16.10;;;18.50;52.00;;;;;;5011541;28;20037;-74
2022/03/05 09:36:03;;;;;;;22.27;14.82;;;18.50;51.90;;;;;;5010538;28;20052;-73
2022/03/05 09:38:29;;;;;;;22.17;15.20;;;18.50;51.80;;;;;;5011640;28;20053;-75
2022/03/05 09:40:55;;;;;;;19.95;14.80;;;18.50;51.70;;;;;;5010785;28;20033;-75
2022/03/05 09:43:21;;;;;;;21.13;14.98;;;18.60;51.70;;;;;;5010475;28;20076;-73
2022/03/05 09:45:47;;;;;;;21.85;15.20;;;18.60;51.60;;;;;;5011436;28;20040;-73
2022/03/05 09:48:15;;;;;;;23.20;15.57;;;18.60;51.50;;;;;;5011703;28;20101;-73
2022/03/05 09:50:41;;;;;;;21.27;15.15;;;18.60;51.50;;;;;;5011433;28;20033;-76
2022/03/05 09:53:07;;;;;;;20.40;15.45;;;18.60;51.40;;;;;;5011600;28;20026;-74
2022/03/05 09:55:33;;;;;;;21.08;15.43;;;18.60;51.40;;;;;;5011299;28;20069;-73
2022/03/05 09:57:59;;;;;;;20.83;14.02;;;18.70;51.40;;;;;;5011509;28;20026;-74
2022/03/05 10:00:25;;;;;;;20.27;15.05;;;18.70;51.30;;;;;;5011848;28;20083;-73
2022/03/05 10:02:52;;;;;;;21.45;14.60;;;18.70;51.20;;;;;;5011233;28;20022;-73
2022/03/05 10:05:19;;;;;;;24.08;15.32;;;18.70;51.10;;;;;;5011479;28;20071;-73
2022/03/05 10:08:20;;;;;;;22.75;15.02;;;18.70;51.10;;;;;;5011266;28;20034;-73
2022/03/05 10:10:54;;;;;;;19.60;14.55;;;18.70;51.00;;;;;;5011334;28;20038;-73
2022/03/05 10:13:31;;;;;;;21.58;15.77;;;18.70;51.00;;;;;;5011426;28;20030;-73
2022/03/05 10:16:20;;;;;;;20.70;15.40;;;18.70;50.90;;;;;;5011409;28;20038;-73
2022/03/05 10:18:46;;;;;;;22.98;14.98;;;18.80;50.90;;;;;;5010014;28;20529;-81
2022/03/05 10:21:12;;;;;;;22.73;16.38;;;18.80;50.90;;;;;;5011559;28;20097;-75
2022/03/05 10:23:42;;;;;;;25.08;16.70;;;18.80;50.90;;;;;;5011053;28;20117;-80
2022/03/05 10:26:09;;;;;;;25.88;17.88;;;18.70;50.90;;;;;;5011346;28;20080;-78
2022/03/05 10:28:37;;;;;;;27.42;17.73;;;18.80;50.90;;;;;;5011067;28;20030;-74
2022/03/05 10:31:12;;;;;;;23.33;15.95;;;18.70;50.80;;;;;;5011196;28;20045;-76
2022/03/05 10:33:46;;;;;;;23.40;15.95;;;18.70;50.90;;;;;;5011067;28;20108;-73
2022/03/05 10:36:21;;;;;;;22.67;16.23;;;18.70;50.90;;;;;;5011182;28;20441;-73
2022/03/05 10:38:54;;;;;;;20.35;15.75;;;18.70;50.90;;;;;;5011012;28;20030;-74
2022/03/05 10:41:40;;;;;;;23.23;16.55;;;18.80;50.90;;;;;;5011178;28;20109;-73
2022/03/05 10:44:11;;;;;;;;;;;18.80;50.80;;;;;;5011623;28;20591;-72
2022/03/05 10:46:56;;;;;;;22.90;16.00;;;18.90;50.60;;;;;;5010817;28;19932;-73
2022/03/05 10:49:27;;;;;;;21.38;15.93;;;19.00;50.50;;;;;;5009861;28;20021;-73
2022/03/05 10:52:11;;;;;;;28.73;19.40;;;19.10;50.40;;;;;;5011387;28;20508;-73
2022/03/05 10:54:41;;;;;;;23.73;17.63;;;19.10;50.40;;;;;;5010830;28;20116;-74
2022/03/05 10:57:13;;;;;;;22.15;17.38;;;19.20;50.90;;;;;;5010934;28;20022;-73
2022/03/05 10:59:47;;;;;;;22.95;16.48;;;19.20;50.30;;;;;;5010772;28;20018;-73
2022/03/05 11:02:16;;;;;;;26.33;16.83;;;19.30;50.10;;;;;;5011054;28;20033;-78
2022/03/05 11:04:45;;;;;;;22.75;16.25;;;19.40;50.00;;;;;;5012026;28;20018;-75
2022/03/05 11:07:12;;;;;;;20.90;15.98;;;19.60;49.70;;;;;;5013436;28;20036;-80
2022/03/05 11:09:40;;;;;;;22.48;16.10;;;19.70;49.80;;;;;;5014258;28;20108;-74
2022/03/05 11:12:09;;;;;;;22.60;16.30;;;19.80;49.60;;;;;;5014635;28;20037;-78
2022/03/05 11:14:39;;;;;;;24.73;16.90;;;20.00;49.50;;;;;;5014192;28;20081;-76
2022/03/05 11:17:05;;;;;;;22.88;15.50;;;20.10;49.30;;;;;;5014399;28;20109;-74
2022/03/05 11:19:31;;;;;;;23.55;15.15;;;20.20;49.30;;;;;;5014208;28;20018;-73
2022/03/05 11:21:58;;;;;;;19.35;14.18;;;20.40;49.40;;;;;;5014227;28;20056;-73
2022/03/05 11:24:24;;;;;;;23.30;15.40;;;20.50;49.30;;;;;;5014625;28;20030;-73
2022/03/05 11:26:52;;;;;;;20.80;15.55;;;20.60;49.30;;;;;;5013890;28;20025;-74
2022/03/05 11:29:28;;;;;;;22.13;15.10;;;20.80;49.80;;;;;;5014098;28;20030;-80
2022/03/05 11:32:13;;;;;;;20.98;14.23;;;21.00;48.20;;;;;;5014396;28;20464;-75
2022/03/05 11:34:49;;;;;;;23.35;14.23;;;;;;;;;;5013684;28;20505;-74
2022/03/05 11:37:24;;;;;;;19.98;15.13;;;;;;;;;;5013925;28;20022;-75
2022/03/05 11:39:51;;;;;;;19.98;14.70;;;;;;;;;;5013751;28;20025;-74
2022/03/05 11:42:37;;;;;;;20.38;14.27;;;;;;;;;;5012667;28;20416;-75
2022/03/05 11:45:22;;;;;;;20.00;14.68;;;;;;;;;;5013641;28;20096;-73
2022/03/05 11:47:48;;;;;;;19.13;14.15;;;;;;;;;;5013683;28;20028;-74
2022/03/05 11:50:16;;;;;;;21.40;16.30;;;;;;;;;;5013815;28;20034;-74
2022/03/05 11:52:42;;;;;;;18.27;15.10;;;;;;;;;;5012253;28;20022;-73
2022/03/05 11:55:14;;;;;;;22.13;15.38;;;21.10;48.00;;;;;;5013724;28;20042;-73
2022/03/05 11:57:44;;;;;;;20.98;14.70;;;;;;;;;;5012187;28;20117;-74
2022/03/05 12:00:11;;;;;;;21.13;14.80;;;;;;;;;;5013629;28;20025;-77
2022/03/05 12:02:43;;;;;;;22.65;14.88;;;24.30;44.50;;;;;;5013345;28;20447;-75
2022/03/05 12:05:09;;;;;;;20.05;14.45;;;;;;;;;;5013548;28;20083;-77
2022/03/05 12:07:36;;;;;;;18.38;13.20;;;26.30;40.40;;;;;;5013371;28;20049;-75
2022/03/05 12:10:11;;;;;;;19.42;13.25;;;;;;;;;;5013337;28;20402;-76
2022/03/05 12:12:52;;;;;;;17.55;13.43;;;27.30;38.60;;;;;;5011634;28;20397;-76
2022/03/05 12:15:25;;;;;;;15.80;12.07;;;28.30;38.40;;;;;;5012865;28;20038;-77
2022/03/05 12:17:51;;;;;;;15.18;12.20;;;28.40;37.20;;;;;;5012285;28;20025;-74
2022/03/05 12:20:19;;;;;;;17.42;12.25;;;;;;;;;;5011871;28;20401;-73
2022/03/05 12:22:47;;;;;;;14.20;11.57;;;;;;;;;;5012963;28;20377;-75
2022/03/05 12:25:13;;;;;;;16.17;11.32;;;;;;;;;;5012883;28;20042;-75
2022/03/05 12:27:50;;;;;;;16.13;12.02;;;28.70;36.90;;;;;;5012775;28;20028;-73
2022/03/05 12:30:17;;;;;;;15.10;10.23;;;30.80;34.40;;;;;;5013101;28;20092;-74
2022/03/05 12:32:45;;;;;;;14.27;11.05;;;30.90;34.10;;;;;;5011399;28;20022;-73
2022/03/05 12:35:12;;;;;;;13.93;11.20;;;;;;;;;;5011711;28;20409;-77